createdAt,value
2023-04-28T00:00:11.801Z,56.50
2023-04-28T00:02:39.831Z,56.54
2023-04-28T00:05:07.966Z,59.81
2023-04-28T00:07:35.663Z,59.84
2023-04-28T00:10:03.358Z,57.81
2023-04-28T00:12:32.331Z,56.78
2023-04-28T00:14:59.851Z,56.66
2023-04-28T00:17:27.524Z,56.26
2023-04-28T00:19:55.091Z,56.29
2023-04-28T00:22:22.885Z,56.72
2023-04-28T00:24:50.436Z,58.71
2023-04-28T00:27:17.980Z,56.97
2023-04-28T00:29:47.162Z,56.46
2023-04-28T00:32:14.681Z,56.47
2023-04-28T00:34:42.318Z,56.67
2023-04-28T00:37:09.904Z,56.69
2023-04-28T00:39:37.391Z,57.85
2023-04-28T00:42:05.137Z,57.42
2023-04-28T00:44:32.625Z,57.50
2023-04-28T00:47:02.077Z,56.97
2023-04-28T00:49:29.685Z,56.75
2023-04-28T00:51:57.611Z,56.78
2023-04-28T00:54:25.945Z,56.75
2023-04-28T00:56:53.492Z,59.16
2023-04-28T01:01:48.959Z,57.11
2023-04-28T01:04:20.888Z,57.20
2023-04-28T01:06:50.126Z,57.43
2023-04-28T01:09:17.682Z,58.18
2023-04-28T01:11:45.310Z,58.53
2023-04-28T01:14:12.803Z,57.39
2023-04-28T01:16:41.501Z,57.88
2023-04-28T01:19:09.466Z,57.86
2023-04-28T01:21:38.268Z,57.96
2023-04-28T01:24:08.774Z,57.63
2023-04-28T01:26:36.365Z,57.27
2023-04-28T01:29:03.886Z,57.34
2023-04-28T01:31:31.844Z,57.31
2023-04-28T01:33:59.483Z,57.47
2023-04-28T01:36:27.360Z,57.78
2023-04-28T01:38:54.897Z,57.77
2023-04-28T01:41:23.732Z,57.89
2023-04-28T01:43:51.932Z,57.89
2023-04-28T01:46:19.499Z,57.97
2023-04-28T01:48:47.478Z,58.29
2023-04-28T01:51:14.963Z,58.66
2023-04-28T01:53:42.480Z,60.07
2023-04-28T01:56:10.045Z,60.12
2023-04-28T01:58:38.981Z,60.05
2023-04-28T02:01:06.772Z,60.17
2023-04-28T02:03:34.548Z,59.85
2023-04-28T02:06:02.457Z,59.95
2023-04-28T02:08:29.983Z,59.80
2023-04-28T02:10:57.946Z,60.02
2023-04-28T02:13:25.502Z,60.46
2023-04-28T02:15:54.499Z,60.67
2023-04-28T02:18:22.070Z,60.49
2023-04-28T02:20:49.661Z,60.98
2023-04-28T02:23:17.240Z,61.33
2023-04-28T02:25:44.835Z,60.25
2023-04-28T02:28:13.033Z,60.90
2023-04-28T02:30:40.879Z,61.21
2023-04-28T02:33:09.793Z,61.80
2023-04-28T02:35:37.523Z,62.00
2023-04-28T02:38:05.040Z,61.22
2023-04-28T02:40:32.648Z,61.32
2023-04-28T02:43:00.540Z,61.72
2023-04-28T02:45:28.142Z,62.72
2023-04-28T02:47:55.873Z,62.36
2023-04-28T02:50:24.843Z,63.46
2023-04-28T02:52:52.351Z,62.94
2023-04-28T02:55:24.135Z,63.14
2023-04-28T02:57:52.024Z,63.34
2023-04-28T03:00:20.124Z,64.27
2023-04-28T03:02:47.754Z,64.75
2023-04-28T03:05:15.755Z,65.16
2023-04-28T03:07:44.647Z,64.90
2023-04-28T03:10:12.390Z,64.80
2023-04-28T03:12:39.982Z,64.94
2023-04-28T03:15:08.941Z,65.93
2023-04-28T03:17:38.997Z,65.74
2023-04-28T03:20:07.699Z,65.66
2023-04-28T03:22:35.629Z,65.28
2023-04-28T03:25:05.390Z,65.59
2023-04-28T03:27:32.923Z,65.84
2023-04-28T03:30:00.708Z,66.08
2023-04-28T03:32:28.450Z,65.87
2023-04-28T03:34:56.122Z,65.83
2023-04-28T03:37:23.656Z,66.04
2023-04-28T03:39:51.217Z,66.27
2023-04-28T03:42:20.160Z,66.43
2023-04-28T03:44:47.785Z,66.29
2023-04-28T03:47:15.536Z,66.39
2023-04-28T03:49:43.018Z,66.50
2023-04-28T03:52:10.545Z,66.54
2023-04-28T03:54:38.077Z,66.69
2023-04-28T03:57:05.644Z,66.65
2023-04-28T03:59:34.593Z,66.80
2023-04-28T04:02:02.104Z,66.80
2023-04-28T04:04:29.782Z,66.78
2023-04-28T04:06:57.654Z,66.82
2023-04-28T04:09:25.313Z,66.87
2023-04-28T04:11:52.931Z,67.25
2023-04-28T04:14:20.657Z,67.38
2023-04-28T04:16:49.574Z,68.24
2023-04-28T04:19:17.102Z,68.10
2023-04-28T04:21:44.672Z,68.29
2023-04-28T04:24:12.233Z,69.48
2023-04-28T04:26:39.838Z,69.14
2023-04-28T04:29:07.447Z,69.07
2023-04-28T04:31:35.111Z,69.41
2023-04-28T04:34:04.042Z,69.00
2023-04-28T04:36:32.846Z,67.99
2023-04-28T04:39:00.524Z,67.74
2023-04-28T04:41:28.272Z,67.69
2023-04-28T04:46:59.742Z,67.57
2023-04-28T04:50:12.538Z,67.83
2023-04-28T05:21:46.926Z,69.48
2023-04-28T05:27:59.473Z,68.03
2023-04-28T05:31:06.869Z,70.00
2023-04-28T05:34:01.562Z,69.53
2023-04-28T05:36:29.325Z,68.82
2023-04-28T05:38:56.998Z,69.31
2023-04-28T05:41:32.071Z,68.94
2023-04-28T05:44:01.568Z,69.90
2023-04-28T05:46:31.045Z,70.01
2023-04-28T05:48:59.852Z,70.04
2023-04-28T05:51:28.229Z,69.92
2023-04-28T05:53:56.205Z,70.11
2023-04-28T05:56:23.870Z,69.99
2023-04-28T05:58:52.133Z,69.76
2023-04-28T06:01:27.410Z,70.58
2023-04-28T06:04:27.528Z,70.73
2023-04-28T06:10:07.998Z,71.36
2023-04-28T06:12:55.722Z,72.04
2023-04-28T06:15:26.108Z,71.03
2023-04-28T06:17:56.086Z,71.67
2023-04-28T06:20:24.282Z,71.80
2023-04-28T06:22:52.270Z,71.73
2023-04-28T06:25:20.083Z,71.67
2023-04-28T06:27:48.190Z,71.55
2023-04-28T06:30:20.906Z,71.79
2023-04-28T06:32:49.528Z,72.04
2023-04-28T06:35:18.924Z,71.69
2023-04-28T06:37:59.258Z,72.04
2023-04-28T06:40:27.374Z,72.02
2023-04-28T06:42:55.009Z,72.42
2023-04-28T06:45:22.770Z,72.54
2023-04-28T06:47:51.181Z,72.81
2023-04-28T06:50:20.276Z,72.96
2023-04-28T07:06:50.113Z,73.47
2023-04-28T07:12:02.144Z,73.69
2023-04-28T07:14:29.666Z,73.94
2023-04-28T07:16:57.256Z,74.16
2023-04-28T07:49:16.467Z,76.62
2023-04-28T07:54:58.085Z,77.65
2023-04-28T07:57:27.051Z,76.99
2023-04-28T07:59:55.230Z,77.29
2023-04-28T08:02:24.916Z,77.70
2023-04-28T08:04:54.808Z,78.07
2023-04-28T08:07:22.979Z,78.03
2023-04-28T08:09:52.628Z,77.74
2023-04-28T08:12:21.989Z,77.50
2023-04-28T08:14:49.583Z,77.99
2023-04-28T08:17:21.018Z,78.36
2023-04-28T08:19:48.843Z,77.95
2023-04-28T08:22:17.912Z,78.28
2023-04-28T08:24:46.391Z,78.20
2023-04-28T08:30:25.838Z,78.42
2023-04-28T08:45:14.678Z,79.30
2023-04-28T08:47:50.005Z,78.38
2023-04-28T08:50:23.041Z,78.86
2023-04-28T08:52:58.385Z,79.26
2023-04-28T08:55:33.874Z,78.92
2023-04-28T08:58:04.899Z,79.44
2023-04-28T09:00:33.145Z,79.41
2023-04-28T09:03:01.135Z,79.49
2023-04-28T09:05:28.928Z,79.78
2023-04-28T09:07:56.972Z,79.58
2023-04-28T09:10:25.779Z,79.44
2023-04-28T09:12:55.208Z,79.32
2023-04-28T09:15:55.888Z,79.73
2023-04-28T09:18:26.519Z,79.29
2023-04-28T09:21:46.478Z,80.06
2023-04-28T09:24:29.837Z,79.96
2023-04-28T09:26:57.945Z,79.27
2023-04-28T09:29:25.617Z,79.16
2023-04-28T09:31:54.807Z,79.22
2023-04-28T09:34:22.693Z,79.28
2023-04-28T09:36:50.737Z,79.27
2023-04-28T09:39:29.713Z,79.32
2023-04-28T09:41:57.372Z,78.76
2023-04-28T09:44:24.993Z,78.83
2023-04-28T09:46:53.825Z,78.98
2023-04-28T09:49:21.733Z,78.84
2023-04-28T09:51:50.266Z,79.12
2023-04-28T09:54:18.493Z,79.50
2023-04-28T09:56:48.617Z,80.15
2023-04-28T09:59:16.415Z,79.58
2023-04-28T10:01:45.213Z,79.39
2023-04-28T10:04:14.808Z,79.59
2023-04-28T10:06:43.728Z,79.54
2023-04-28T10:09:12.441Z,79.18
2023-04-28T10:11:40.623Z,79.44
2023-04-28T10:14:08.223Z,79.24
2023-04-28T10:16:35.862Z,79.45
2023-04-28T10:19:04.745Z,79.61
2023-04-28T10:21:41.979Z,79.58
2023-04-28T10:24:11.727Z,79.49
2023-04-28T10:27:04.105Z,80.50
2023-04-28T10:29:33.321Z,79.06
2023-04-28T10:32:21.323Z,80.07
2023-04-28T10:34:49.226Z,79.29
2023-04-28T10:37:19.235Z,79.36
2023-04-28T10:40:24.979Z,80.17
2023-04-28T10:42:53.590Z,79.65
2023-04-28T10:45:56.677Z,79.85
2023-04-28T10:48:45.097Z,79.80
2023-04-28T10:51:24.417Z,80.30
2023-04-28T10:54:21.762Z,79.99
2023-04-28T10:57:21.233Z,79.98
2023-04-28T10:59:50.312Z,79.56
2023-04-28T11:02:39.013Z,80.40
2023-04-28T11:05:13.379Z,80.02
2023-04-28T11:07:41.071Z,80.08
2023-04-28T11:10:10.149Z,79.97
2023-04-28T11:12:37.660Z,80.09
2023-04-28T11:15:13.749Z,81.00
2023-04-28T11:17:42.882Z,80.38
2023-04-28T11:20:13.816Z,80.58
2023-04-28T11:22:41.982Z,80.24
2023-04-28T11:25:10.985Z,80.29
2023-04-28T11:27:38.468Z,80.24
2023-04-28T11:30:22.178Z,81.04
2023-04-28T11:32:51.225Z,80.57
2023-04-28T11:35:18.774Z,80.48
2023-04-28T11:37:46.581Z,80.78
2023-04-28T11:40:17.296Z,81.11
2023-04-28T11:42:49.044Z,81.22
2023-04-28T11:45:16.686Z,80.85
2023-04-28T11:47:44.299Z,80.68
2023-04-28T11:50:12.894Z,80.52
2023-04-28T11:52:50.847Z,81.47
2023-04-28T11:55:21.435Z,80.73
2023-04-28T11:57:48.900Z,80.57
2023-04-28T12:00:21.768Z,81.05
2023-04-28T12:02:49.509Z,80.90
2023-04-28T12:05:17.579Z,80.91
2023-04-28T12:07:46.522Z,81.01
2023-04-28T12:10:16.658Z,80.96
2023-04-28T12:12:51.944Z,81.25
2023-04-28T12:15:21.641Z,80.90
2023-04-28T12:17:50.751Z,80.90
2023-04-28T12:20:37.169Z,81.31
2023-04-28T12:23:05.372Z,80.72
2023-04-28T12:25:34.002Z,80.63
2023-04-28T12:28:04.527Z,80.71
2023-04-28T12:30:33.964Z,80.87
2023-04-28T12:33:01.938Z,80.53
2023-04-28T12:35:30.497Z,80.18
2023-04-28T12:37:58.981Z,80.04
2023-04-28T12:40:27.050Z,79.74
2023-04-28T12:42:54.767Z,79.77
2023-04-28T12:45:23.690Z,79.93
2023-04-28T12:47:51.418Z,79.68
2023-04-28T12:50:19.183Z,79.68
2023-04-28T12:52:46.728Z,79.87
2023-04-28T12:55:14.301Z,80.12
2023-04-28T12:57:41.947Z,80.21
2023-04-28T13:00:10.435Z,80.36
2023-04-28T13:02:40.070Z,80.12
2023-04-28T13:05:09.244Z,80.32
2023-04-28T13:07:36.891Z,80.66
2023-04-28T13:10:04.569Z,80.91
2023-04-28T13:12:33.438Z,81.32
2023-04-28T13:15:02.486Z,81.11
2023-04-28T13:17:30.082Z,80.83
2023-04-28T16:01:15.215Z,82.08
2023-04-28T16:03:44.194Z,81.80
2023-04-28T16:06:13.317Z,82.06
2023-04-28T16:08:40.910Z,82.48
2023-04-28T16:11:17.467Z,83.15
2023-04-28T16:13:45.405Z,82.99
2023-04-28T16:16:14.331Z,83.65
2023-04-28T16:18:41.868Z,83.76
2023-04-28T16:21:09.388Z,83.69
2023-04-28T16:23:37.768Z,83.62
2023-04-28T16:26:05.656Z,83.59
2023-04-28T16:28:33.578Z,83.65
2023-04-28T16:31:01.151Z,83.28
2023-04-28T16:33:30.024Z,83.58
2023-04-28T16:35:59.411Z,83.45
2023-04-28T16:38:27.026Z,83.71
2023-04-28T16:40:54.570Z,84.05
2023-04-28T16:43:22.386Z,84.17
2023-04-28T16:45:50.046Z,84.38
2023-04-28T16:48:20.057Z,84.51
2023-04-28T16:50:48.931Z,84.50
2023-04-28T16:53:16.535Z,84.33
2023-04-28T16:55:44.014Z,84.30
2023-04-28T16:58:11.499Z,84.42
2023-04-28T17:00:39.067Z,84.37
2023-04-28T17:03:06.912Z,84.25
2023-04-28T17:05:35.105Z,84.24
2023-04-28T17:08:04.036Z,84.09
2023-04-28T17:10:32.319Z,84.15
2023-04-28T17:12:59.863Z,84.43
2023-04-28T17:15:27.628Z,84.60
2023-04-28T17:17:55.828Z,84.98
2023-04-28T17:20:24.052Z,85.60
2023-04-28T17:22:53.106Z,85.42
2023-04-28T17:25:24.112Z,84.86
2023-04-28T17:27:51.666Z,81.29
2023-04-28T17:30:19.208Z,78.85
2023-04-28T17:32:46.946Z,77.63
2023-04-28T17:35:14.497Z,77.63
2023-04-28T17:37:42.088Z,77.41
2023-04-28T17:40:11.156Z,79.14
2023-04-28T17:42:40.068Z,80.55
2023-04-28T17:45:08.859Z,79.42
2023-04-28T17:47:37.024Z,80.92
2023-04-28T17:50:06.532Z,80.38
2023-04-28T17:52:34.149Z,79.69
2023-04-28T17:55:01.686Z,79.40
2023-04-28T17:57:29.169Z,79.29
2023-04-28T17:59:58.076Z,79.49
2023-04-28T18:02:25.738Z,79.77
2023-04-28T18:04:53.673Z,80.46
2023-04-28T18:07:21.373Z,79.93
2023-04-28T18:09:48.897Z,79.78
2023-04-28T18:12:17.125Z,80.13
2023-04-28T18:14:45.378Z,80.20
2023-04-28T18:17:14.228Z,80.06
2023-04-28T18:19:42.076Z,80.46
2023-04-28T18:22:09.979Z,80.67
2023-04-28T18:24:37.930Z,80.85
2023-04-28T18:27:05.459Z,81.40
2023-04-28T18:29:32.978Z,81.67
2023-04-28T18:32:00.975Z,81.70
2023-04-28T18:34:29.942Z,81.86
2023-04-28T18:36:57.481Z,81.91
2023-04-28T18:39:25.317Z,83.06
2023-04-28T18:41:53.114Z,83.60
2023-04-28T18:44:20.610Z,82.73
2023-04-28T18:46:48.389Z,82.07
2023-04-28T18:49:15.928Z,82.78
2023-04-28T18:51:44.820Z,82.83
2023-04-28T18:54:15.781Z,84.13
2023-04-28T18:56:44.314Z,85.06
2023-04-28T18:59:12.188Z,84.69
2023-04-28T19:01:39.825Z,84.73
2023-04-28T19:04:07.552Z,84.41
2023-04-28T19:06:36.179Z,83.94
2023-04-28T19:09:05.103Z,83.66
2023-04-28T19:11:32.665Z,83.32
2023-04-28T19:14:00.189Z,83.79
2023-04-28T19:16:27.881Z,83.51
2023-04-28T19:18:55.821Z,83.35
2023-04-28T19:21:23.395Z,83.60
2023-04-28T19:23:50.891Z,83.88
2023-04-28T19:26:19.798Z,84.11
2023-04-28T19:28:47.431Z,83.70
2023-04-28T19:31:15.043Z,83.90
2023-04-28T19:33:42.620Z,84.03
2023-04-28T19:36:10.689Z,84.26
2023-04-28T19:38:40.141Z,84.42
2023-04-28T19:41:07.743Z,84.58
2023-04-28T19:43:36.729Z,84.72
2023-04-28T19:46:04.278Z,84.58
2023-04-28T19:48:31.835Z,84.98
2023-04-28T19:50:59.395Z,84.79
2023-04-28T19:53:27.185Z,84.63
2023-04-28T19:55:54.680Z,84.90
2023-04-28T19:58:22.939Z,85.49
2023-04-28T20:00:53.577Z,85.65
2023-04-28T20:03:21.271Z,86.17
2023-04-28T20:05:49.182Z,85.57
2023-04-28T20:08:19.405Z,86.22
2023-04-28T20:10:47.775Z,85.88
2023-04-28T20:13:16.258Z,85.67
2023-04-28T20:15:43.974Z,85.69
2023-04-28T20:18:12.883Z,85.90
2023-04-28T20:20:40.391Z,85.50
2023-04-28T20:23:07.938Z,85.58
2023-04-28T20:25:36.931Z,85.99
2023-04-28T20:28:04.804Z,86.23
2023-04-28T20:30:32.564Z,87.20
2023-04-28T20:33:00.153Z,87.69
2023-04-28T20:35:29.157Z,87.63
2023-04-28T20:37:56.752Z,87.68
2023-04-28T20:40:24.235Z,87.48
2023-04-28T20:42:51.713Z,87.26
2023-04-28T20:45:19.552Z,87.52
2023-04-28T20:47:47.136Z,87.64
2023-04-28T20:50:15.573Z,87.77
2023-04-28T20:52:45.692Z,88.05
2023-04-28T20:55:13.337Z,87.83
2023-04-28T20:57:40.860Z,87.88
2023-04-28T21:00:10.549Z,87.73
2023-04-28T21:02:38.247Z,88.23
2023-04-28T21:05:06.440Z,88.63
2023-04-28T21:07:34.038Z,88.27
2023-04-28T21:10:02.885Z,88.33
2023-04-28T21:12:30.383Z,87.74
2023-04-28T21:14:59.417Z,87.67
2023-04-28T21:17:27.162Z,87.51
2023-04-28T21:19:55.186Z,87.84
2023-04-28T21:22:22.743Z,88.02
2023-04-28T21:24:50.210Z,87.85
2023-04-28T21:27:19.190Z,88.11
2023-04-28T21:29:46.918Z,88.23
2023-04-28T21:32:14.780Z,87.82
2023-04-28T21:34:42.623Z,87.79
2023-04-28T21:37:10.119Z,88.08
2023-04-28T21:39:37.694Z,88.12
2023-04-28T21:42:08.024Z,88.47
2023-04-28T21:44:37.490Z,88.47
2023-04-28T21:47:06.632Z,88.19
2023-04-28T21:49:34.178Z,87.13
2023-04-28T21:52:01.858Z,87.23
2023-04-28T21:54:29.449Z,88.00
2023-04-28T21:56:56.955Z,87.95
2023-04-28T21:59:25.248Z,88.13
2023-04-28T22:01:54.490Z,88.38
2023-04-28T22:04:23.201Z,88.46
2023-04-28T22:06:51.084Z,88.70
2023-04-28T22:09:18.594Z,89.19
2023-04-28T22:11:46.160Z,89.65
2023-04-28T22:14:30.469Z,89.55
2023-04-28T22:17:06.769Z,89.63
2023-04-28T22:19:34.572Z,89.11
2023-04-28T22:22:02.379Z,89.33
2023-04-28T22:24:30.106Z,89.19
2023-04-28T22:26:58.310Z,89.27
2023-04-28T22:29:26.745Z,89.10
2023-04-28T22:31:54.690Z,89.26
2023-04-28T22:34:24.213Z,89.67
2023-04-28T22:36:52.912Z,89.72
2023-04-28T22:39:20.804Z,89.64
2023-04-28T22:41:49.081Z,89.49
2023-04-28T22:44:17.176Z,89.50
2023-04-28T22:46:45.220Z,89.37
2023-04-28T22:49:13.234Z,89.20
2023-04-28T22:51:42.509Z,89.36
2023-04-28T22:54:11.111Z,89.05
2023-04-28T22:56:38.991Z,88.89
2023-04-28T22:59:06.833Z,88.50
2023-04-28T23:01:34.789Z,88.95
2023-04-28T23:04:02.886Z,88.81
2023-04-28T23:06:32.122Z,88.74
2023-04-28T23:09:03.510Z,88.80
2023-04-28T23:11:31.318Z,88.76
2023-04-28T23:13:59.264Z,88.73
2023-04-28T23:16:27.140Z,88.80
2023-04-28T23:18:55.026Z,88.89
2023-04-28T23:21:22.800Z,89.07
2023-04-28T23:23:50.844Z,89.16
2023-04-28T23:26:20.153Z,89.05
2023-04-28T23:28:48.210Z,89.21
2023-04-28T23:31:16.334Z,89.26
2023-04-28T23:33:44.124Z,89.08
2023-04-28T23:36:12.711Z,89.25
2023-04-28T23:38:40.599Z,89.27
2023-04-28T23:41:09.193Z,89.37
2023-04-28T23:43:38.585Z,89.73
2023-04-28T23:46:06.890Z,89.57
2023-04-28T23:48:34.849Z,89.43
2023-04-28T23:51:02.835Z,89.93
2023-04-28T23:53:30.789Z,89.60
2023-04-28T23:55:58.677Z,89.31
2023-04-28T23:58:26.629Z,89.63
